sensor_id;sensor_type;location;lat;lon;timestamp;temperature;humidity
15617;DHT22;7908;51.688;7.130;2023-11-19T00:01:13;10.70;99.90
15617;DHT22;7908;51.688;7.130;2023-11-19T00:03:43;10.70;99.90
15617;DHT22;7908;51.688;7.130;2023-11-19T00:06:18;10.70;99.90
15617;DHT22;7908;51.688;7.130;2023-11-19T00:08:47;10.70;99.90
15617;DHT22;7908;51.688;7.130;2023-11-19T00:11:19;10.70;99.90
15617;DHT22;7908;51.688;7.130;2023-11-19T00:13:48;10.80;99.90
15617;DHT22;7908;51.688;7.130;2023-11-19T00:16:22;10.80;99.90
15617;DHT22;7908;51.688;7.130;2023-11-19T00:18:52;10.80;99.90
15617;DHT22;7908;51.688;7.130;2023-11-19T00:21:23;10.90;99.90
15617;DHT22;7908;51.688;7.130;2023-11-19T00:23:56;10.90;99.90
15617;DHT22;7908;51.688;7.130;2023-11-19T00:26:26;10.90;99.90
15617;DHT22;7908;51.688;7.130;2023-11-19T00:28:55;10.90;99.90
15617;DHT22;7908;51.688;7.130;2023-11-19T00:31:25;11.00;99.90
15617;DHT22;7908;51.688;7.130;2023-11-19T00:33:58;11.00;99.90
15617;DHT22;7908;51.688;7.130;2023-11-19T00:36:31;11.00;99.90
15617;DHT22;7908;51.688;7.130;2023-11-19T00:39:00;11.00;99.90
15617;DHT22;7908;51.688;7.130;2023-11-19T00:41:29;11.10;99.90
15617;DHT22;7908;51.688;7.130;2023-11-19T00:43:58;11.10;99.90
15617;DHT22;7908;51.688;7.130;2023-11-19T00:46:27;11.20;99.90
15617;DHT22;7908;51.688;7.130;2023-11-19T00:48:57;11.20;99.90
15617;DHT22;7908;51.688;7.130;2023-11-19T00:51:30;11.20;99.90
15617;DHT22;7908;51.688;7.130;2023-11-19T00:54:00;11.30;99.90
15617;DHT22;7908;51.688;7.130;2023-11-19T00:56:29;11.30;99.90
15617;DHT22;7908;51.688;7.130;2023-11-19T00:59:03;11.30;99.90
15617;DHT22;7908;51.688;7.130;2023-11-19T01:01:32;11.30;99.90
15617;DHT22;7908;51.688;7.130;2023-11-19T01:04:01;11.30;99.90
15617;DHT22;7908;51.688;7.130;2023-11-19T01:06:32;11.40;99.90
15617;DHT22;7908;51.688;7.130;2023-11-19T01:09:01;11.40;99.90
15617;DHT22;7908;51.688;7.130;2023-11-19T01:11:30;11.40;99.90
15617;DHT22;7908;51.688;7.130;2023-11-19T01:13:59;11.50;99.90
15617;DHT22;7908;51.688;7.130;2023-11-19T01:16:28;11.50;99.90
15617;DHT22;7908;51.688;7.130;2023-11-19T01:18:57;11.60;99.90
15617;DHT22;7908;51.688;7.130;2023-11-19T01:21:43;11.60;99.90
15617;DHT22;7908;51.688;7.130;2023-11-19T01:24:12;11.60;99.90
15617;DHT22;7908;51.688;7.130;2023-11-19T01:26:42;11.70;99.90
15617;DHT22;7908;51.688;7.130;2023-11-19T01:29:12;11.70;99.90
15617;DHT22;7908;51.688;7.130;2023-11-19T01:31:42;11.70;99.90
15617;DHT22;7908;51.688;7.130;2023-11-19T01:34:11;11.80;99.90
15617;DHT22;7908;51.688;7.130;2023-11-19T01:36:42;11.80;99.90
15617;DHT22;7908;51.688;7.130;2023-11-19T01:39:13;11.80;99.90
15617;DHT22;7908;51.688;7.130;2023-11-19T01:41:43;11.80;99.90
15617;DHT22;7908;51.688;7.130;2023-11-19T01:44:12;11.80;99.90
15617;DHT22;7908;51.688;7.130;2023-11-19T01:46:42;11.90;99.90
15617;DHT22;7908;51.688;7.130;2023-11-19T01:49:14;11.90;99.90
15617;DHT22;7908;51.688;7.130;2023-11-19T01:51:45;11.90;99.90
15617;DHT22;7908;51.688;7.130;2023-11-19T01:54:14;11.90;99.90
15617;DHT22;7908;51.688;7.130;2023-11-19T01:56:43;11.90;99.90
15617;DHT22;7908;51.688;7.130;2023-11-19T01:59:12;12.00;99.90
15617;DHT22;7908;51.688;7.130;2023-11-19T02:01:42;12.00;99.90
15617;DHT22;7908;51.688;7.130;2023-11-19T02:04:11;12.10;99.90
15617;DHT22;7908;51.688;7.130;2023-11-19T02:06:43;12.10;99.90
15617;DHT22;7908;51.688;7.130;2023-11-19T02:09:13;12.20;99.90
15617;DHT22;7908;51.688;7.130;2023-11-19T02:11:46;12.20;99.90
15617;DHT22;7908;51.688;7.130;2023-11-19T02:14:18;12.20;99.90
15617;DHT22;7908;51.688;7.130;2023-11-19T02:16:48;12.30;99.90
15617;DHT22;7908;51.688;7.130;2023-11-19T02:19:19;12.30;99.90
15617;DHT22;7908;51.688;7.130;2023-11-19T02:21:49;12.40;99.90
15617;DHT22;7908;51.688;7.130;2023-11-19T02:24:20;12.40;99.90
15617;DHT22;7908;51.688;7.130;2023-11-19T02:26:57;12.40;99.90
15617;DHT22;7908;51.688;7.130;2023-11-19T02:29:29;12.40;99.90
15617;DHT22;7908;51.688;7.130;2023-11-19T02:31:58;12.40;99.90
15617;DHT22;7908;51.688;7.130;2023-11-19T02:34:27;12.40;99.90
15617;DHT22;7908;51.688;7.130;2023-11-19T02:36:56;12.40;99.90
15617;DHT22;7908;51.688;7.130;2023-11-19T02:39:25;12.40;99.90
15617;DHT22;7908;51.688;7.130;2023-11-19T02:41:53;12.40;99.90
15617;DHT22;7908;51.688;7.130;2023-11-19T02:44:22;12.50;99.90
15617;DHT22;7908;51.688;7.130;2023-11-19T02:46:52;12.40;99.90
15617;DHT22;7908;51.688;7.130;2023-11-19T02:49:21;12.40;99.90
15617;DHT22;7908;51.688;7.130;2023-11-19T02:51:50;12.40;99.90
15617;DHT22;7908;51.688;7.130;2023-11-19T02:54:18;12.40;99.90
15617;DHT22;7908;51.688;7.130;2023-11-19T02:56:48;12.40;99.90
15617;DHT22;7908;51.688;7.130;2023-11-19T02:59:22;12.40;99.90
15617;DHT22;7908;51.688;7.130;2023-11-19T03:01:57;12.40;99.90
15617;DHT22;7908;51.688;7.130;2023-11-19T03:04:27;12.40;99.90
15617;DHT22;7908;51.688;7.130;2023-11-19T03:06:55;12.40;99.90
15617;DHT22;7908;51.688;7.130;2023-11-19T03:09:25;12.40;99.90
15617;DHT22;7908;51.688;7.130;2023-11-19T03:11:53;12.40;99.90
15617;DHT22;7908;51.688;7.130;2023-11-19T03:14:22;12.40;99.90
15617;DHT22;7908;51.688;7.130;2023-11-19T03:16:51;12.40;99.90
15617;DHT22;7908;51.688;7.130;2023-11-19T03:19:21;12.30;99.90
15617;DHT22;7908;51.688;7.130;2023-11-19T03:21:52;12.30;99.90
15617;DHT22;7908;51.688;7.130;2023-11-19T03:24:21;12.30;99.90
15617;DHT22;7908;51.688;7.130;2023-11-19T03:26:50;12.30;99.90
15617;DHT22;7908;51.688;7.130;2023-11-19T03:29:18;12.30;99.90
15617;DHT22;7908;51.688;7.130;2023-11-19T03:31:47;12.40;99.90
15617;DHT22;7908;51.688;7.130;2023-11-19T03:34:17;12.30;99.90
15617;DHT22;7908;51.688;7.130;2023-11-19T03:36:47;12.30;99.90
15617;DHT22;7908;51.688;7.130;2023-11-19T03:39:16;12.30;99.90
15617;DHT22;7908;51.688;7.130;2023-11-19T03:41:45;12.40;99.90
15617;DHT22;7908;51.688;7.130;2023-11-19T03:44:15;12.40;99.90
15617;DHT22;7908;51.688;7.130;2023-11-19T03:46:43;12.40;99.90
15617;DHT22;7908;51.688;7.130;2023-11-19T03:49:12;12.40;99.90
15617;DHT22;7908;51.688;7.130;2023-11-19T03:51:41;12.40;99.90
15617;DHT22;7908;51.688;7.130;2023-11-19T03:54:11;12.40;99.90
15617;DHT22;7908;51.688;7.130;2023-11-19T03:56:39;12.40;99.90
15617;DHT22;7908;51.688;7.130;2023-11-19T03:59:07;12.40;99.90
15617;DHT22;7908;51.688;7.130;2023-11-19T04:01:37;12.40;99.90
15617;DHT22;7908;51.688;7.130;2023-11-19T04:04:05;12.40;99.90
15617;DHT22;7908;51.688;7.130;2023-11-19T04:06:34;12.40;99.90
15617;DHT22;7908;51.688;7.130;2023-11-19T04:09:03;12.40;99.90
15617;DHT22;7908;51.688;7.130;2023-11-19T04:11:33;12.40;99.90
15617;DHT22;7908;51.688;7.130;2023-11-19T04:14:02;12.40;99.90
15617;DHT22;7908;51.688;7.130;2023-11-19T04:16:30;12.40;99.90
15617;DHT22;7908;51.688;7.130;2023-11-19T04:18:59;12.40;99.90
15617;DHT22;7908;51.688;7.130;2023-11-19T04:21:28;12.40;99.90
15617;DHT22;7908;51.688;7.130;2023-11-19T04:23:57;12.30;99.90
15617;DHT22;7908;51.688;7.130;2023-11-19T04:26:26;12.30;99.90
15617;DHT22;7908;51.688;7.130;2023-11-19T04:28:56;12.20;99.90
15617;DHT22;7908;51.688;7.130;2023-11-19T04:31:29;12.20;99.90
15617;DHT22;7908;51.688;7.130;2023-11-19T04:33:58;12.20;99.90
15617;DHT22;7908;51.688;7.130;2023-11-19T04:36:28;12.20;99.90
15617;DHT22;7908;51.688;7.130;2023-11-19T04:38:56;12.20;99.90
15617;DHT22;7908;51.688;7.130;2023-11-19T04:41:26;12.10;99.90
15617;DHT22;7908;51.688;7.130;2023-11-19T04:43:57;12.10;99.90
15617;DHT22;7908;51.688;7.130;2023-11-19T04:46:25;12.00;99.90
15617;DHT22;7908;51.688;7.130;2023-11-19T04:48:54;12.00;99.90
15617;DHT22;7908;51.688;7.130;2023-11-19T04:51:23;12.00;99.90
15617;DHT22;7908;51.688;7.130;2023-11-19T04:53:51;12.00;99.90
15617;DHT22;7908;51.688;7.130;2023-11-19T04:56:20;11.90;99.90
15617;DHT22;7908;51.688;7.130;2023-11-19T04:58:50;11.90;99.90
15617;DHT22;7908;51.688;7.130;2023-11-19T05:01:20;11.90;99.90
15617;DHT22;7908;51.688;7.130;2023-11-19T05:03:49;11.80;99.90
15617;DHT22;7908;51.688;7.130;2023-11-19T05:06:18;11.70;99.90
15617;DHT22;7908;51.688;7.130;2023-11-19T05:08:47;11.70;99.90
15617;DHT22;7908;51.688;7.130;2023-11-19T05:11:16;11.70;99.90
15617;DHT22;7908;51.688;7.130;2023-11-19T05:13:46;11.60;99.90
15617;DHT22;7908;51.688;7.130;2023-11-19T05:16:15;11.60;99.90
15617;DHT22;7908;51.688;7.130;2023-11-19T05:18:46;11.60;99.90
15617;DHT22;7908;51.688;7.130;2023-11-19T05:21:15;11.50;99.90
15617;DHT22;7908;51.688;7.130;2023-11-19T05:23:44;11.50;99.90
15617;DHT22;7908;51.688;7.130;2023-11-19T05:26:18;11.40;99.90
15617;DHT22;7908;51.688;7.130;2023-11-19T05:28:48;11.40;99.90
15617;DHT22;7908;51.688;7.130;2023-11-19T05:31:17;11.40;99.90
15617;DHT22;7908;51.688;7.130;2023-11-19T05:33:48;11.30;99.90
15617;DHT22;7908;51.688;7.130;2023-11-19T05:36:16;11.30;99.90
15617;DHT22;7908;51.688;7.130;2023-11-19T05:38:45;11.30;99.90
15617;DHT22;7908;51.688;7.130;2023-11-19T05:41:14;11.30;99.90
15617;DHT22;7908;51.688;7.130;2023-11-19T05:43:43;11.30;99.90
15617;DHT22;7908;51.688;7.130;2023-11-19T05:46:12;11.30;99.90
15617;DHT22;7908;51.688;7.130;2023-11-19T05:48:43;11.20;99.90
15617;DHT22;7908;51.688;7.130;2023-11-19T05:51:15;11.30;99.90
15617;DHT22;7908;51.688;7.130;2023-11-19T05:53:44;11.20;99.90
15617;DHT22;7908;51.688;7.130;2023-11-19T05:56:13;11.20;99.90
15617;DHT22;7908;51.688;7.130;2023-11-19T05:58:43;11.20;99.90
15617;DHT22;7908;51.688;7.130;2023-11-19T06:01:12;11.20;99.90
15617;DHT22;7908;51.688;7.130;2023-11-19T06:03:41;11.20;99.90
15617;DHT22;7908;51.688;7.130;2023-11-19T06:06:10;11.20;99.90
15617;DHT22;7908;51.688;7.130;2023-11-19T06:08:40;11.20;99.90
15617;DHT22;7908;51.688;7.130;2023-11-19T06:11:10;11.20;99.90
15617;DHT22;7908;51.688;7.130;2023-11-19T06:13:45;11.20;99.90
15617;DHT22;7908;51.688;7.130;2023-11-19T06:16:15;11.20;99.90
15617;DHT22;7908;51.688;7.130;2023-11-19T06:18:44;11.20;99.90
15617;DHT22;7908;51.688;7.130;2023-11-19T06:21:13;11.20;99.90
15617;DHT22;7908;51.688;7.130;2023-11-19T06:23:43;11.20;99.90
15617;DHT22;7908;51.688;7.130;2023-11-19T06:26:12;11.20;99.90
15617;DHT22;7908;51.688;7.130;2023-11-19T06:28:41;11.20;99.90
15617;DHT22;7908;51.688;7.130;2023-11-19T06:31:10;11.20;99.90
15617;DHT22;7908;51.688;7.130;2023-11-19T06:33:38;11.30;99.90
15617;DHT22;7908;51.688;7.130;2023-11-19T06:36:08;11.30;99.90
15617;DHT22;7908;51.688;7.130;2023-11-19T06:38:37;11.30;99.90
15617;DHT22;7908;51.688;7.130;2023-11-19T06:41:09;11.30;99.90
15617;DHT22;7908;51.688;7.130;2023-11-19T06:43:38;11.30;99.90
15617;DHT22;7908;51.688;7.130;2023-11-19T06:46:15;11.30;99.90
15617;DHT22;7908;51.688;7.130;2023-11-19T06:48:44;11.30;99.90
15617;DHT22;7908;51.688;7.130;2023-11-19T06:51:13;11.40;99.90
15617;DHT22;7908;51.688;7.130;2023-11-19T06:53:42;11.30;99.90
15617;DHT22;7908;51.688;7.130;2023-11-19T06:56:24;11.30;99.90
15617;DHT22;7908;51.688;7.130;2023-11-19T06:58:53;11.40;99.90
15617;DHT22;7908;51.688;7.130;2023-11-19T07:01:22;11.30;99.90
15617;DHT22;7908;51.688;7.130;2023-11-19T07:03:50;11.40;99.90
15617;DHT22;7908;51.688;7.130;2023-11-19T07:06:19;11.40;99.90
15617;DHT22;7908;51.688;7.130;2023-11-19T07:09:01;11.40;99.90
15617;DHT22;7908;51.688;7.130;2023-11-19T07:11:39;11.40;99.90
15617;DHT22;7908;51.688;7.130;2023-11-19T07:14:08;11.40;99.90
15617;DHT22;7908;51.688;7.130;2023-11-19T07:16:37;11.30;99.90
15617;DHT22;7908;51.688;7.130;2023-11-19T07:19:06;11.30;99.90
15617;DHT22;7908;51.688;7.130;2023-11-19T07:21:35;11.30;99.90
15617;DHT22;7908;51.688;7.130;2023-11-19T07:24:07;11.20;99.90
15617;DHT22;7908;51.688;7.130;2023-11-19T07:26:39;11.20;99.90
15617;DHT22;7908;51.688;7.130;2023-11-19T07:29:09;11.20;99.90
15617;DHT22;7908;51.688;7.130;2023-11-19T07:31:38;11.20;99.90
15617;DHT22;7908;51.688;7.130;2023-11-19T07:34:07;11.20;99.90
15617;DHT22;7908;51.688;7.130;2023-11-19T07:36:36;11.20;99.90
15617;DHT22;7908;51.688;7.130;2023-11-19T07:39:05;11.20;99.90
15617;DHT22;7908;51.688;7.130;2023-11-19T07:41:34;11.10;99.90
15617;DHT22;7908;51.688;7.130;2023-11-19T07:44:04;11.10;99.90
15617;DHT22;7908;51.688;7.130;2023-11-19T07:46:34;11.10;99.90
15617;DHT22;7908;51.688;7.130;2023-11-19T07:49:03;11.10;99.90
15617;DHT22;7908;51.688;7.130;2023-11-19T07:51:32;11.10;99.90
15617;DHT22;7908;51.688;7.130;2023-11-19T07:54:00;11.10;99.90
15617;DHT22;7908;51.688;7.130;2023-11-19T07:56:29;11.20;99.90
15617;DHT22;7908;51.688;7.130;2023-11-19T07:58:58;11.20;99.90
15617;DHT22;7908;51.688;7.130;2023-11-19T08:01:29;11.20;99.90
15617;DHT22;7908;51.688;7.130;2023-11-19T08:03:58;11.30;99.90
15617;DHT22;7908;51.688;7.130;2023-11-19T08:06:27;11.30;99.90
15617;DHT22;7908;51.688;7.130;2023-11-19T08:08:56;11.30;99.90
15617;DHT22;7908;51.688;7.130;2023-11-19T08:11:25;11.30;99.90
15617;DHT22;7908;51.688;7.130;2023-11-19T08:13:54;11.40;99.90
15617;DHT22;7908;51.688;7.130;2023-11-19T08:16:23;11.40;99.90
15617;DHT22;7908;51.688;7.130;2023-11-19T08:18:54;11.40;99.90
15617;DHT22;7908;51.688;7.130;2023-11-19T08:21:24;11.40;99.90
15617;DHT22;7908;51.688;7.130;2023-11-19T08:23:54;11.40;99.90
15617;DHT22;7908;51.688;7.130;2023-11-19T08:26:23;11.40;99.90
15617;DHT22;7908;51.688;7.130;2023-11-19T08:28:53;11.50;99.90
15617;DHT22;7908;51.688;7.130;2023-11-19T08:31:24;11.50;99.90
15617;DHT22;7908;51.688;7.130;2023-11-19T08:33:54;11.50;99.90
15617;DHT22;7908;51.688;7.130;2023-11-19T08:36:23;11.50;99.90
15617;DHT22;7908;51.688;7.130;2023-11-19T08:38:52;11.60;99.90
15617;DHT22;7908;51.688;7.130;2023-11-19T08:41:23;11.50;99.90
15617;DHT22;7908;51.688;7.130;2023-11-19T08:43:52;11.60;99.90
15617;DHT22;7908;51.688;7.130;2023-11-19T08:46:21;11.50;99.90
15617;DHT22;7908;51.688;7.130;2023-11-19T08:48:52;11.50;99.90
15617;DHT22;7908;51.688;7.130;2023-11-19T08:51:25;11.50;99.90
15617;DHT22;7908;51.688;7.130;2023-11-19T08:53:55;11.50;99.90
15617;DHT22;7908;51.688;7.130;2023-11-19T08:56:24;11.50;99.90
15617;DHT22;7908;51.688;7.130;2023-11-19T08:58:59;11.50;99.90
15617;DHT22;7908;51.688;7.130;2023-11-19T09:01:28;11.40;99.90
15617;DHT22;7908;51.688;7.130;2023-11-19T09:03:57;11.40;99.90
15617;DHT22;7908;51.688;7.130;2023-11-19T09:06:30;11.40;99.90
15617;DHT22;7908;51.688;7.130;2023-11-19T09:08:59;11.40;99.90
15617;DHT22;7908;51.688;7.130;2023-11-19T09:11:30;11.50;99.90
15617;DHT22;7908;51.688;7.130;2023-11-19T09:13:59;11.50;99.90
15617;DHT22;7908;51.688;7.130;2023-11-19T09:16:28;11.60;99.90
15617;DHT22;7908;51.688;7.130;2023-11-19T09:18:57;11.60;99.90
15617;DHT22;7908;51.688;7.130;2023-11-19T09:21:34;11.70;99.90
15617;DHT22;7908;51.688;7.130;2023-11-19T09:24:06;11.70;99.90
15617;DHT22;7908;51.688;7.130;2023-11-19T09:26:36;11.80;99.90
15617;DHT22;7908;51.688;7.130;2023-11-19T09:29:08;11.80;99.90
15617;DHT22;7908;51.688;7.130;2023-11-19T09:31:38;11.80;99.90
15617;DHT22;7908;51.688;7.130;2023-11-19T09:34:08;11.80;99.90
15617;DHT22;7908;51.688;7.130;2023-11-19T09:36:39;11.80;99.90
15617;DHT22;7908;51.688;7.130;2023-11-19T09:39:14;11.80;99.90
15617;DHT22;7908;51.688;7.130;2023-11-19T09:41:45;11.80;99.90
15617;DHT22;7908;51.688;7.130;2023-11-19T09:44:15;11.80;99.90
15617;DHT22;7908;51.688;7.130;2023-11-19T09:46:46;11.90;99.90
15617;DHT22;7908;51.688;7.130;2023-11-19T09:49:21;11.90;99.90
15617;DHT22;7908;51.688;7.130;2023-11-19T09:52:05;11.90;99.90
15617;DHT22;7908;51.688;7.130;2023-11-19T09:54:37;11.90;99.90
15617;DHT22;7908;51.688;7.130;2023-11-19T09:57:08;11.90;99.90
15617;DHT22;7908;51.688;7.130;2023-11-19T09:59:52;11.90;99.90
15617;DHT22;7908;51.688;7.130;2023-11-19T10:02:27;11.90;99.90
15617;DHT22;7908;51.688;7.130;2023-11-19T10:05:10;11.90;99.90
15617;DHT22;7908;51.688;7.130;2023-11-19T10:07:47;11.90;99.90
15617;DHT22;7908;51.688;7.130;2023-11-19T10:10:20;11.90;99.90
15617;DHT22;7908;51.688;7.130;2023-11-19T10:12:55;12.00;99.90
15617;DHT22;7908;51.688;7.130;2023-11-19T10:15:37;11.90;99.90
15617;DHT22;7908;51.688;7.130;2023-11-19T10:18:07;11.90;99.90
15617;DHT22;7908;51.688;7.130;2023-11-19T10:20:36;11.90;99.90
15617;DHT22;7908;51.688;7.130;2023-11-19T10:23:08;11.90;99.90
15617;DHT22;7908;51.688;7.130;2023-11-19T10:25:41;11.90;99.90
15617;DHT22;7908;51.688;7.130;2023-11-19T10:28:11;11.90;99.90
15617;DHT22;7908;51.688;7.130;2023-11-19T10:30:49;11.80;99.90
15617;DHT22;7908;51.688;7.130;2023-11-19T10:33:30;11.80;99.90
15617;DHT22;7908;51.688;7.130;2023-11-19T10:36:02;11.80;99.90
15617;DHT22;7908;51.688;7.130;2023-11-19T10:38:59;11.70;99.90
15617;DHT22;7908;51.688;7.130;2023-11-19T10:41:41;11.70;99.90
15617;DHT22;7908;51.688;7.130;2023-11-19T10:44:32;11.70;99.90
15617;DHT22;7908;51.688;7.130;2023-11-19T10:47:15;11.70;99.90
15617;DHT22;7908;51.688;7.130;2023-11-19T10:49:53;11.70;99.90
15617;DHT22;7908;51.688;7.130;2023-11-19T10:52:25;11.70;99.90
15617;DHT22;7908;51.688;7.130;2023-11-19T10:55:02;11.70;99.90
15617;DHT22;7908;51.688;7.130;2023-11-19T10:57:37;11.70;99.90
15617;DHT22;7908;51.688;7.130;2023-11-19T11:00:10;11.80;99.90
15617;DHT22;7908;51.688;7.130;2023-11-19T11:02:46;11.80;99.90
15617;DHT22;7908;51.688;7.130;2023-11-19T11:05:32;11.80;99.90
15617;DHT22;7908;51.688;7.130;2023-11-19T11:08:23;11.90;99.90
15617;DHT22;7908;51.688;7.130;2023-11-19T11:11:01;11.90;99.90
15617;DHT22;7908;51.688;7.130;2023-11-19T11:13:43;11.90;99.90
15617;DHT22;7908;51.688;7.130;2023-11-19T11:16:30;11.90;99.90
15617;DHT22;7908;51.688;7.130;2023-11-19T11:19:08;11.90;99.90
15617;DHT22;7908;51.688;7.130;2023-11-19T11:21:43;11.90;99.90
15617;DHT22;7908;51.688;7.130;2023-11-19T11:24:40;12.00;99.90
15617;DHT22;7908;51.688;7.130;2023-11-19T11:27:42;12.00;99.90
15617;DHT22;7908;51.688;7.130;2023-11-19T11:30:34;12.00;99.90
15617;DHT22;7908;51.688;7.130;2023-11-19T11:33:23;12.00;99.90
15617;DHT22;7908;51.688;7.130;2023-11-19T11:36:06;12.00;99.90
15617;DHT22;7908;51.688;7.130;2023-11-19T11:38:55;12.10;99.90
15617;DHT22;7908;51.688;7.130;2023-11-19T11:41:35;12.10;99.90
15617;DHT22;7908;51.688;7.130;2023-11-19T11:44:07;12.20;99.90
15617;DHT22;7908;51.688;7.130;2023-11-19T11:46:55;12.20;99.90
15617;DHT22;7908;51.688;7.130;2023-11-19T11:49:37;12.20;99.90
15617;DHT22;7908;51.688;7.130;2023-11-19T11:52:32;12.30;99.90
15617;DHT22;7908;51.688;7.130;2023-11-19T11:55:05;12.30;99.90
15617;DHT22;7908;51.688;7.130;2023-11-19T11:57:40;12.30;99.90
15617;DHT22;7908;51.688;7.130;2023-11-19T12:00:26;12.30;99.90
15617;DHT22;7908;51.688;7.130;2023-11-19T12:03:13;12.30;99.90
15617;DHT22;7908;51.688;7.130;2023-11-19T12:05:45;12.30;99.90
15617;DHT22;7908;51.688;7.130;2023-11-19T12:08:15;12.30;99.90
15617;DHT22;7908;51.688;7.130;2023-11-19T12:10:54;12.30;99.90
15617;DHT22;7908;51.688;7.130;2023-11-19T12:13:47;12.30;99.90
15617;DHT22;7908;51.688;7.130;2023-11-19T12:16:19;12.40;99.90
15617;DHT22;7908;51.688;7.130;2023-11-19T12:18:54;12.40;99.90
15617;DHT22;7908;51.688;7.130;2023-11-19T12:21:28;12.50;99.90
15617;DHT22;7908;51.688;7.130;2023-11-19T12:24:01;12.50;99.90
15617;DHT22;7908;51.688;7.130;2023-11-19T12:26:39;12.60;99.90
15617;DHT22;7908;51.688;7.130;2023-11-19T12:29:13;12.60;99.90
15617;DHT22;7908;51.688;7.130;2023-11-19T12:32:00;12.60;99.90
15617;DHT22;7908;51.688;7.130;2023-11-19T12:34:54;12.60;99.90
15617;DHT22;7908;51.688;7.130;2023-11-19T12:37:23;12.60;99.90
15617;DHT22;7908;51.688;7.130;2023-11-19T12:39:55;12.60;99.90
15617;DHT22;7908;51.688;7.130;2023-11-19T12:42:37;12.60;99.90
15617;DHT22;7908;51.688;7.130;2023-11-19T12:45:09;12.60;99.90
15617;DHT22;7908;51.688;7.130;2023-11-19T12:48:07;12.60;99.90
15617;DHT22;7908;51.688;7.130;2023-11-19T12:50:53;12.60;99.90
15617;DHT22;7908;51.688;7.130;2023-11-19T12:53:25;12.60;99.90
15617;DHT22;7908;51.688;7.130;2023-11-19T12:56:10;12.50;99.90
15617;DHT22;7908;51.688;7.130;2023-11-19T12:58:43;12.50;99.90
15617;DHT22;7908;51.688;7.130;2023-11-19T13:01:21;12.50;99.90
15617;DHT22;7908;51.688;7.130;2023-11-19T13:03:55;12.40;99.90
15617;DHT22;7908;51.688;7.130;2023-11-19T13:06:26;12.30;99.90
15617;DHT22;7908;51.688;7.130;2023-11-19T13:08:56;12.30;99.90
15617;DHT22;7908;51.688;7.130;2023-11-19T13:11:33;12.30;99.90
15617;DHT22;7908;51.688;7.130;2023-11-19T13:14:06;12.20;99.90
15617;DHT22;7908;51.688;7.130;2023-11-19T13:16:37;12.20;99.90
15617;DHT22;7908;51.688;7.130;2023-11-19T13:19:12;12.20;99.90
15617;DHT22;7908;51.688;7.130;2023-11-19T13:21:43;12.20;99.90
15617;DHT22;7908;51.688;7.130;2023-11-19T13:24:20;12.20;99.90
15617;DHT22;7908;51.688;7.130;2023-11-19T13:26:51;12.10;99.90
15617;DHT22;7908;51.688;7.130;2023-11-19T13:29:23;12.10;99.90
15617;DHT22;7908;51.688;7.130;2023-11-19T13:31:58;12.10;99.90
15617;DHT22;7908;51.688;7.130;2023-11-19T13:34:31;12.20;99.90
15617;DHT22;7908;51.688;7.130;2023-11-19T13:37:10;12.20;99.90
15617;DHT22;7908;51.688;7.130;2023-11-19T13:39:44;12.20;99.90
15617;DHT22;7908;51.688;7.130;2023-11-19T13:42:24;12.20;99.90
15617;DHT22;7908;51.688;7.130;2023-11-19T13:44:59;12.30;99.90
15617;DHT22;7908;51.688;7.130;2023-11-19T13:47:33;12.30;99.90
15617;DHT22;7908;51.688;7.130;2023-11-19T13:50:08;12.20;99.90
15617;DHT22;7908;51.688;7.130;2023-11-19T13:52:39;12.20;99.90
15617;DHT22;7908;51.688;7.130;2023-11-19T13:55:09;12.20;99.90
15617;DHT22;7908;51.688;7.130;2023-11-19T13:57:51;12.20;99.90
15617;DHT22;7908;51.688;7.130;2023-11-19T14:00:20;12.20;99.90
15617;DHT22;7908;51.688;7.130;2023-11-19T14:02:53;12.20;99.90
15617;DHT22;7908;51.688;7.130;2023-11-19T14:05:32;12.20;99.90
15617;DHT22;7908;51.688;7.130;2023-11-19T14:08:25;12.30;99.90
15617;DHT22;7908;51.688;7.130;2023-11-19T14:11:09;12.30;99.90
15617;DHT22;7908;51.688;7.130;2023-11-19T14:13:44;12.30;99.90
15617;DHT22;7908;51.688;7.130;2023-11-19T14:16:20;12.30;99.90
15617;DHT22;7908;51.688;7.130;2023-11-19T14:18:54;12.30;99.90
15617;DHT22;7908;51.688;7.130;2023-11-19T14:21:31;12.30;99.90
15617;DHT22;7908;51.688;7.130;2023-11-19T14:24:31;12.30;99.90
15617;DHT22;7908;51.688;7.130;2023-11-19T14:27:05;12.30;99.90
15617;DHT22;7908;51.688;7.130;2023-11-19T14:29:37;12.30;99.90
15617;DHT22;7908;51.688;7.130;2023-11-19T14:32:07;12.20;99.90
15617;DHT22;7908;51.688;7.130;2023-11-19T14:34:44;12.30;99.90
15617;DHT22;7908;51.688;7.130;2023-11-19T14:37:20;12.30;99.90
15617;DHT22;7908;51.688;7.130;2023-11-19T14:39:56;12.40;99.90
15617;DHT22;7908;51.688;7.130;2023-11-19T14:42:30;12.40;99.90
15617;DHT22;7908;51.688;7.130;2023-11-19T14:45:05;12.30;99.90
15617;DHT22;7908;51.688;7.130;2023-11-19T14:47:39;12.10;99.90
15617;DHT22;7908;51.688;7.130;2023-11-19T14:50:13;12.10;99.90
15617;DHT22;7908;51.688;7.130;2023-11-19T14:52:47;12.00;99.90
15617;DHT22;7908;51.688;7.130;2023-11-19T14:55:17;11.90;99.90
15617;DHT22;7908;51.688;7.130;2023-11-19T14:57:49;11.90;99.90
15617;DHT22;7908;51.688;7.130;2023-11-19T15:00:35;11.80;99.90
15617;DHT22;7908;51.688;7.130;2023-11-19T15:03:08;11.70;99.90
15617;DHT22;7908;51.688;7.130;2023-11-19T15:05:37;11.70;99.90
15617;DHT22;7908;51.688;7.130;2023-11-19T15:08:31;11.70;99.90
15617;DHT22;7908;51.688;7.130;2023-11-19T15:11:06;11.70;99.90
15617;DHT22;7908;51.688;7.130;2023-11-19T15:13:37;11.70;99.90
15617;DHT22;7908;51.688;7.130;2023-11-19T15:16:08;11.70;99.90
15617;DHT22;7908;51.688;7.130;2023-11-19T15:18:42;11.70;99.90
15617;DHT22;7908;51.688;7.130;2023-11-19T15:21:16;11.70;99.90
15617;DHT22;7908;51.688;7.130;2023-11-19T15:23:51;11.70;99.90
15617;DHT22;7908;51.688;7.130;2023-11-19T15:26:22;11.70;99.90
15617;DHT22;7908;51.688;7.130;2023-11-19T15:29:06;11.70;99.90
15617;DHT22;7908;51.688;7.130;2023-11-19T15:31:37;11.60;99.90
15617;DHT22;7908;51.688;7.130;2023-11-19T15:34:07;11.70;99.90
15617;DHT22;7908;51.688;7.130;2023-11-19T15:36:37;11.60;99.90
15617;DHT22;7908;51.688;7.130;2023-11-19T15:39:15;11.70;99.90
15617;DHT22;7908;51.688;7.130;2023-11-19T15:41:49;11.60;99.90
15617;DHT22;7908;51.688;7.130;2023-11-19T15:44:28;11.60;99.90
15617;DHT22;7908;51.688;7.130;2023-11-19T15:46:58;11.60;99.90
15617;DHT22;7908;51.688;7.130;2023-11-19T15:49:50;11.60;99.90
15617;DHT22;7908;51.688;7.130;2023-11-19T15:52:30;11.60;99.90
15617;DHT22;7908;51.688;7.130;2023-11-19T15:55:26;11.60;99.90
15617;DHT22;7908;51.688;7.130;2023-11-19T15:57:58;11.60;99.90
15617;DHT22;7908;51.688;7.130;2023-11-19T16:00:33;11.50;99.90
15617;DHT22;7908;51.688;7.130;2023-11-19T16:03:16;11.50;99.90
15617;DHT22;7908;51.688;7.130;2023-11-19T16:05:54;11.50;99.90
15617;DHT22;7908;51.688;7.130;2023-11-19T16:08:40;11.50;99.90
15617;DHT22;7908;51.688;7.130;2023-11-19T16:11:14;11.50;99.90
15617;DHT22;7908;51.688;7.130;2023-11-19T16:13:52;11.50;99.90
15617;DHT22;7908;51.688;7.130;2023-11-19T16:16:25;11.50;99.90
15617;DHT22;7908;51.688;7.130;2023-11-19T16:18:54;11.50;99.90
15617;DHT22;7908;51.688;7.130;2023-11-19T16:21:31;11.50;99.90